Aérodrome :
LOGIN :

S'inscrire | Disclaimer

   EN    FR    IT 

 










Légende :    VFR   VFR Marginal   IFR   IFR Intensif   IFR Très Intensif
Visi : 
Plafond : 
>= 8 km
>= 3000ft
5 à 8 km
1000 à 3000 ft
1500m à 5 km
500 à 1000 ft
800 à 1500m
200 à 500 ft
< 800m
< 200 ft
Symboles :   Orages  Brouillard  Fortes neiges  Fortes précipitations  Vent > 20 kt
SIGMETs :   Divers  Orages  Givrage  Turbulence  Onde Orograph.  Cendres Volcan.






- Altitude de l'aérodrome : 1302 ft
- Code IATA : GNB


LFLS - Grenoble / St. Geoirs

DERNIER METAR :
  • 071300Z AUTO 34005KT 9999 FEW056 14/05 Q1021 NOSIG

METARs EXPIRÉS :
  • 071230Z AUTO 30003KT 250V360 9999 FEW056 14/05 Q1021 NOSIG
  • 071200Z AUTO VRB03KT 9999 BKN056 13/04 Q1021 NOSIG
  • 071130Z AUTO VRB01KT 9999 FEW054 13/04 Q1021 NOSIG
  • 071100Z AUTO VRB02KT 9999 FEW070 13/03 Q1021 NOSIG
  • 071030Z AUTO VRB02KT 9999 BKN070 13/02 Q1022 NOSIG

TAF TAF LFLS
Valide du 07 à 09h jusqu'au 08 à 09h UTC


070800Z 0709/0809 08006KT CAVOK
TEMPO 0709/0715 BKN055
PROB30
TEMPO 0718/0808 1000 BCFG
ATIS : +33 4 76 65 55 89



MET'MAP, la Météo Aéronautique d'un coup d'oeil ! - Copyright ORBIFLY Décembre 2007 - Disclaimer

ORBIFLY MET'MAP TEAM :

Programmation & Développement : Alexandra Zaïnal
Sur une idée originale de : Baudouin d'Aumeries
Assistance à la programmation : Marc-Olivier Méhu
Soutien technique & logistique : Manuel Goepfert

Contact : metmap@orbifly.com




SOURCES & CREDITS :

   NOAA